createdAt,value
2018-10-09T00:03:51.918Z,101711.87
2018-10-09T00:08:46.370Z,101694.82
2018-10-09T00:13:41.265Z,101696.25
2018-10-09T00:18:35.767Z,101695.80
2018-10-09T00:23:30.232Z,101689.20
2018-10-09T00:28:24.716Z,101683.36
2018-10-09T00:33:19.190Z,101666.79
2018-10-09T00:38:13.981Z,101657.92
2018-10-09T00:43:08.458Z,101658.06
2018-10-09T00:48:02.978Z,101642.03
2018-10-09T00:52:57.630Z,101636.70
2018-10-09T00:57:52.095Z,101638.95
2018-10-09T01:02:46.797Z,101646.87
2018-10-09T01:07:41.259Z,101652.33
2018-10-09T01:12:35.754Z,101649.38
2018-10-09T01:17:30.305Z,101641.94
2018-10-09T01:22:25.079Z,101642.50
2018-10-09T01:27:19.579Z,101649.28
2018-10-09T01:32:14.036Z,101640.48
2018-10-09T01:37:08.529Z,101646.75
2018-10-09T01:42:02.975Z,101632.73
2018-10-09T01:46:57.417Z,101635.83
2018-10-09T01:51:51.875Z,101645.69
2018-10-09T01:56:46.329Z,101651.50
2018-10-09T02:01:40.824Z,101659.06
2018-10-09T02:06:35.652Z,101662.18
2018-10-09T02:11:30.069Z,101661.81
2018-10-09T02:16:24.806Z,101662.35
2018-10-09T02:21:19.304Z,101665.94
2018-10-09T02:26:13.725Z,101677.06
2018-10-09T02:31:08.449Z,101666.63
2018-10-09T02:36:02.895Z,101660.68
2018-10-09T02:40:57.328Z,101651.50
2018-10-09T02:45:51.795Z,101652.11
2018-10-09T02:50:46.340Z,101649.64
2018-10-09T02:55:41.057Z,101645.36
2018-10-09T03:00:35.503Z,101637.92
2018-10-09T03:05:29.944Z,101633.48
2018-10-09T03:10:24.431Z,101632.22
2018-10-09T03:15:18.855Z,101627.50
2018-10-09T03:20:13.284Z,101624.52
2018-10-09T03:25:07.979Z,101620.73
2018-10-09T03:30:02.409Z,101610.73
2018-10-09T03:34:56.913Z,101611.55
2018-10-09T03:39:51.361Z,101604.45
2018-10-09T03:44:45.825Z,101600.49
2018-10-09T03:49:40.538Z,101597.38
2018-10-09T03:54:35.141Z,101588.08
2018-10-09T03:59:29.612Z,101590.28
2018-10-09T04:04:24.047Z,101577.14
2018-10-09T04:09:18.517Z,101575.77
2018-10-09T04:14:13.247Z,101577.64
2018-10-09T04:19:07.834Z,101576.91
2018-10-09T04:24:02.425Z,101581.48
2018-10-09T04:28:57.194Z,101578.95
2018-10-09T04:33:51.812Z,101570.56
2018-10-09T04:38:46.271Z,101573.68
2018-10-09T04:43:40.844Z,101568.45
2018-10-09T04:48:35.736Z,101560.59
2018-10-09T04:53:30.317Z,101570.28
2018-10-09T04:58:25.157Z,101567.25
2018-10-09T05:03:19.644Z,101569.06
2018-10-09T05:08:14.267Z,101568.67
2018-10-09T05:13:08.720Z,101574.40
2018-10-09T05:18:03.156Z,101577.48
2018-10-09T05:22:57.752Z,101580.12
2018-10-09T05:27:52.389Z,101580.12
2018-10-09T05:32:46.851Z,101589.34
2018-10-09T05:37:41.372Z,101586.66
2018-10-09T05:42:35.996Z,101601.06
2018-10-09T05:47:36.707Z,101605.78
2018-10-09T05:52:31.332Z,101609.18
2018-10-09T05:57:25.954Z,101619.97
2018-10-09T06:02:20.389Z,101623.59
2018-10-09T06:07:15.111Z,101625.41
2018-10-09T06:12:09.906Z,101635.02
2018-10-09T06:17:04.397Z,101645.02
2018-10-09T06:27:04.087Z,101652.31
2018-10-09T06:31:58.587Z,101655.47
2018-10-09T06:36:53.214Z,101654.98
2018-10-09T06:41:47.889Z,101657.30
2018-10-09T06:46:42.462Z,101656.01
2018-10-09T06:51:37.044Z,101666.74
2018-10-09T06:56:32.010Z,101674.64
2018-10-09T07:01:26.621Z,101680.19
2018-10-09T07:06:21.363Z,101675.09
2018-10-09T07:11:16.129Z,101680.94
2018-10-09T07:16:11.386Z,101688.92
2018-10-09T07:21:05.975Z,101698.55
2018-10-09T07:26:00.488Z,101692.33
2018-10-09T07:30:55.194Z,101696.34
2018-10-09T07:35:49.800Z,101704.63
2018-10-09T07:40:44.252Z,101713.77
2018-10-09T07:45:38.918Z,101712.89
2018-10-09T07:50:33.507Z,101732.20
2018-10-09T07:55:28.134Z,101723.25
2018-10-09T08:00:23.148Z,101728.91
2018-10-09T08:05:17.694Z,101721.45
2018-10-09T08:10:12.126Z,101719.91
2018-10-09T08:15:06.639Z,101724.20
2018-10-09T08:20:01.105Z,101721.13
2018-10-09T08:24:55.697Z,101719.55
2018-10-09T08:29:50.123Z,101716.42
2018-10-09T08:34:44.753Z,101723.91
2018-10-09T08:39:39.400Z,101727.09
2018-10-09T08:44:34.094Z,101732.94
2018-10-09T08:49:28.579Z,101734.30
2018-10-09T08:54:23.220Z,101739.17
2018-10-09T08:59:17.774Z,101741.97
2018-10-09T09:04:12.238Z,101742.09
2018-10-09T09:09:10.151Z,101737.61
2018-10-09T09:14:04.740Z,101728.63
2018-10-09T09:18:59.572Z,101724.81
2018-10-09T09:23:54.319Z,101737.23
2018-10-09T09:28:49.035Z,101737.44
2018-10-09T09:33:43.793Z,101738.70
2018-10-09T09:38:38.523Z,101729.25
2018-10-09T09:43:33.579Z,101726.25
2018-10-09T09:48:28.646Z,101718.82
2018-10-09T09:53:23.409Z,101725.02
2018-10-09T09:58:17.964Z,101718.06
2018-10-09T10:03:12.351Z,101714.79
2018-10-09T10:08:06.868Z,101719.17
2018-10-09T10:13:01.600Z,101712.64
2018-10-09T10:17:56.119Z,101713.80
2018-10-09T10:22:50.578Z,101703.67
2018-10-09T10:27:45.292Z,101703.65
2018-10-09T10:32:39.778Z,101701.07
2018-10-09T10:37:34.268Z,101706.20
2018-10-09T10:42:28.812Z,101701.94
2018-10-09T10:47:23.551Z,101695.59
2018-10-09T10:52:18.066Z,101687.17
2018-10-09T10:57:12.738Z,101688.15
2018-10-09T11:02:07.570Z,101686.83
2018-10-09T11:07:02.031Z,101682.89
2018-10-09T11:11:56.829Z,101676.81
2018-10-09T11:16:51.676Z,101677.60
2018-10-09T11:21:46.479Z,101676.50
2018-10-09T11:26:41.222Z,101664.30
2018-10-09T11:31:35.915Z,101663.16
2018-10-09T11:36:30.403Z,101657.63
2018-10-09T11:41:24.928Z,101646.34
2018-10-09T11:46:19.363Z,101627.38
2018-10-09T11:51:14.052Z,101625.33
2018-10-09T11:56:08.537Z,101618.80
2018-10-09T12:01:06.199Z,101615.39
2018-10-09T12:06:00.678Z,101608.41
2018-10-09T12:10:55.473Z,101609.06
2018-10-09T12:15:49.971Z,101599.69
2018-10-09T12:20:44.596Z,101591.94
2018-10-09T12:25:39.051Z,101595.45
2018-10-09T12:30:34.013Z,101581.40
2018-10-09T12:35:28.500Z,101576.41
2018-10-09T12:40:23.034Z,101579.41
2018-10-09T12:45:17.666Z,101577.00
2018-10-09T12:50:12.598Z,101567.69
2018-10-09T12:55:07.490Z,101566.69
2018-10-09T13:00:02.041Z,101565.13
2018-10-09T13:04:56.521Z,101556.39
2018-10-09T13:09:50.994Z,101554.97
2018-10-09T13:14:45.489Z,101551.80
2018-10-09T13:19:39.938Z,101549.61
2018-10-09T13:24:34.549Z,101546.17
2018-10-09T13:29:29.056Z,101552.08
2018-10-09T13:34:23.632Z,101546.75
2018-10-09T13:39:18.451Z,101547.34
2018-10-09T13:44:12.992Z,101534.73
2018-10-09T13:49:09.504Z,101527.14
2018-10-09T13:54:04.109Z,101529.21
2018-10-09T13:58:58.628Z,101524.31
2018-10-09T14:03:53.266Z,101526.16
2018-10-09T14:08:48.087Z,101525.88
2018-10-09T14:13:42.534Z,101521.17
2018-10-09T14:18:37.167Z,101515.86
2018-10-09T14:23:31.604Z,101513.31
2018-10-09T14:28:26.076Z,101504.66
2018-10-09T14:33:20.614Z,101509.39
2018-10-09T14:38:15.326Z,101501.19
2018-10-09T14:43:10.330Z,101500.89
2018-10-09T14:48:04.786Z,101503.01
2018-10-09T14:52:59.258Z,101504.87
2018-10-09T14:57:53.704Z,101500.06
2018-10-09T15:02:48.366Z,101506.72
2018-10-09T15:07:43.060Z,101506.09
2018-10-09T15:12:37.794Z,101503.34
2018-10-09T15:17:32.395Z,101506.44
2018-10-09T15:22:27.006Z,101500.53
2018-10-09T15:27:21.644Z,101509.33
2018-10-09T15:32:16.344Z,101504.31
2018-10-09T15:37:11.137Z,101504.06
2018-10-09T15:42:05.603Z,101498.39
2018-10-09T15:47:00.336Z,101497.45
2018-10-09T15:51:55.146Z,101501.98
2018-10-09T15:56:49.890Z,101504.33
2018-10-09T16:01:44.525Z,101503.63
2018-10-09T16:06:39.376Z,101503.52
2018-10-09T16:11:34.254Z,101501.69
2018-10-09T16:16:29.208Z,101503.90
2018-10-09T16:21:23.679Z,101505.23
2018-10-09T16:26:18.778Z,101505.20
2018-10-09T16:31:13.724Z,101508.19
2018-10-09T16:36:08.462Z,101497.64
2018-10-09T16:41:03.325Z,101508.17
2018-10-09T16:45:58.332Z,101510.63
2018-10-09T16:50:53.001Z,101515.02
2018-10-09T16:55:48.140Z,101510.47
2018-10-09T17:00:42.992Z,101512.16
2018-10-09T17:05:37.704Z,101515.54
2018-10-09T17:10:32.326Z,101520.23
2018-10-09T17:15:26.867Z,101518.66
2018-10-09T17:20:21.493Z,101533.43
2018-10-09T17:25:16.127Z,101537.45
2018-10-09T17:30:10.590Z,101537.12
2018-10-09T17:35:05.080Z,101534.13
2018-10-09T17:39:59.617Z,101543.70
2018-10-09T17:44:54.129Z,101542.09
2018-10-09T17:49:48.746Z,101543.41
2018-10-09T17:54:43.186Z,101548.97
2018-10-09T17:59:37.862Z,101556.80
2018-10-09T18:04:32.501Z,101565.86
2018-10-09T18:09:27.291Z,101563.60
2018-10-09T18:14:22.012Z,101561.39
2018-10-09T18:19:16.817Z,101567.45
2018-10-09T18:24:12.360Z,101568.14
2018-10-09T18:29:06.863Z,101570.29
2018-10-09T18:34:01.351Z,101569.86
2018-10-09T18:38:55.851Z,101579.03
2018-10-09T18:43:50.308Z,101578.86
2018-10-09T18:48:45.013Z,101579.11
2018-10-09T18:53:39.744Z,101574.86
2018-10-09T18:58:34.244Z,101581.70
2018-10-09T19:03:29.043Z,101582.66
2018-10-09T19:08:24.265Z,101585.02
2018-10-09T19:13:19.313Z,101583.80
2018-10-09T19:18:13.878Z,101584.73
2018-10-09T19:23:08.775Z,101586.04
2018-10-09T19:28:03.396Z,101578.14
2018-10-09T19:32:57.861Z,101584.31
2018-10-09T19:37:52.647Z,101591.80
2018-10-09T19:42:47.315Z,101591.40
2018-10-09T19:47:41.892Z,101593.88
2018-10-09T19:52:36.984Z,101591.86
2018-10-09T19:57:32.105Z,101600.61
2018-10-09T20:02:26.797Z,101597.78
2018-10-09T20:07:23.705Z,101603.42
2018-10-09T20:12:19.079Z,101603.02
2018-10-09T20:17:13.912Z,101602.73
2018-10-09T20:22:10.391Z,101602.83
2018-10-09T20:27:05.365Z,101596.45
2018-10-09T20:32:00.886Z,101601.00
2018-10-09T20:36:55.430Z,101597.86
2018-10-09T20:41:50.491Z,101601.34
2018-10-09T20:46:45.404Z,101609.88
2018-10-09T20:51:40.435Z,101612.36
2018-10-09T20:56:34.862Z,101610.86
2018-10-09T21:01:29.948Z,101605.44
2018-10-09T21:06:24.400Z,101606.13
2018-10-09T21:11:19.420Z,101597.19
2018-10-09T21:16:14.506Z,101601.77
2018-10-09T21:21:11.472Z,101601.08
2018-10-09T21:26:05.954Z,101599.23
2018-10-09T21:31:01.345Z,101605.55
2018-10-09T21:35:55.914Z,101600.96
2018-10-09T21:40:53.589Z,101604.75
2018-10-09T21:45:48.363Z,101606.98
2018-10-09T21:50:42.947Z,101608.60
2018-10-09T21:55:37.550Z,101609.38
2018-10-09T22:00:36.797Z,101607.23
2018-10-09T22:05:32.795Z,101609.91
2018-10-09T22:10:27.548Z,101604.17
2018-10-09T22:15:22.391Z,101607.92
2018-10-09T22:20:17.002Z,101604.98
2018-10-09T22:25:12.162Z,101593.81
2018-10-09T22:30:07.146Z,101596.09
2018-10-09T22:35:02.089Z,101592.19
2018-10-09T22:39:56.535Z,101591.05
2018-10-09T22:44:51.804Z,101592.16
2018-10-09T22:49:46.258Z,101590.88
2018-10-09T22:54:40.981Z,101591.66
2018-10-09T22:59:35.589Z,101589.79
2018-10-09T23:04:30.170Z,101589.08
2018-10-09T23:09:25.726Z,101593.77
2018-10-09T23:14:20.457Z,101591.44
2018-10-09T23:19:15.385Z,101595.13
2018-10-09T23:24:10.073Z,101598.02
2018-10-09T23:29:04.660Z,101602.33
2018-10-09T23:33:59.329Z,101595.21
2018-10-09T23:38:53.799Z,101595.83
2018-10-09T23:43:48.257Z,101587.72
2018-10-09T23:48:43.212Z,101588.80
2018-10-09T23:53:37.677Z,101584.44
2018-10-09T23:58:32.228Z,101580.45
